Time;durP1;ratioP1;P1;durP2;ratioP2;P2;SDS_P1;SDS_P2;PMS_P1;PMS_P2;Temp;Humidity;BMP_temperature;BMP_pressure;BME280_temperature;BME280_humidity;BME280_pressure;Samples;Min_cycle;Max_cycle;Signal;HPM_P1;HPM_P2
2022/04/20 00:00:09;;;;;;;2.65;1.70;;;;;;;;;;5074917;28;20088;-83
2022/04/20 00:02:35;;;;;;;1.65;1.50;;;;;;;;;;5074754;28;20036;-83
2022/04/20 00:05:00;;;;;;;7.45;1.58;;;;;;;;;;5072345;28;20025;-82
2022/04/20 00:07:26;;;;;;;3.08;1.83;;;;;;;;;;5077746;28;20078;-83
2022/04/20 00:09:51;;;;;;;3.50;1.98;;;;;;;;;;5064468;28;20057;-83
2022/04/20 00:12:17;;;;;;;3.35;2.22;;;;;;;;;;5083533;28;20016;-84
2022/04/20 00:14:42;;;;;;;2.75;2.00;;;;;;;;;;5078825;28;20032;-82
2022/04/20 00:17:07;;;;;;;2.75;2.20;;;;;;;;;;5072974;28;20040;-82
2022/04/20 00:19:33;;;;;;;5.90;2.38;;;;;;;;;;5072996;28;20111;-82
2022/04/20 00:21:58;;;;;;;3.22;2.08;;;;;;;;;;5072975;28;20474;-84
2022/04/20 00:24:23;;;;;;;2.58;2.08;;;;;;;;;;5092909;28;20040;-82
2022/04/20 00:26:49;;;;;;;2.22;2.03;;;;;;;;;;5063285;28;20056;-83
2022/04/20 00:29:14;;;;;;;3.40;2.28;;;;;;;;;;5072651;28;20034;-83
2022/04/20 00:31:39;;;;;;;4.30;2.70;;;;;;;;;;5078847;28;20390;-85
2022/04/20 00:34:05;;;;;;;2.95;2.28;;;;;;;;;;5096347;28;20528;-84
2022/04/20 00:36:30;;;;;;;7.40;2.50;;;;;;;;;;5058414;28;20117;-83
2022/04/20 00:38:56;;;;;;;3.30;2.38;;;;;;;;;;5062208;28;20032;-83
2022/04/20 00:41:21;;;;;;;3.30;2.05;;;;;;;;;;5060596;28;20025;-83
2022/04/20 00:43:47;;;;;;;3.08;1.90;;;;;;;;;;5048441;28;20032;-82
2022/04/20 00:46:14;;;;;;;2.83;1.85;;;;;;;;;;5078473;28;20021;-82
2022/04/20 00:48:40;;;;;;;2.72;2.10;;;;;;;;;;5073823;28;20025;-82
2022/04/20 00:51:05;;;;;;;6.65;2.50;;;;;;;;;;5068960;28;20050;-81
2022/04/20 00:53:31;;;;;;;2.90;2.10;;;;;;;;;;5082297;28;20020;-82
2022/04/20 00:55:56;;;;;;;5.22;2.28;;;;;;;;;;5096985;28;20106;-81
2022/04/20 00:58:21;;;;;;;4.75;2.53;;;;;;;;;;5084733;28;20024;-82
2022/04/20 01:00:47;;;;;;;3.88;2.28;;;;;;;;;;5069921;28;20040;-85
2022/04/20 01:03:12;;;;;;;3.85;2.50;;;;;;;;;;5073959;28;20073;-82
2022/04/20 01:05:38;;;;;;;4.35;2.60;;;;;;;;;;5069543;28;20493;-83
2022/04/20 01:08:04;;;;;;;3.88;2.40;;;;;;;;;;5080796;28;20077;-83
2022/04/20 01:10:29;;;;;;;4.22;2.40;;;;;;;;;;5061666;28;20039;-84
2022/04/20 01:12:54;;;;;;;5.63;2.72;;;;;;;;;;5088319;28;20028;-82
2022/04/20 01:15:20;;;;;;;4.03;2.50;;;;;;;;;;5070115;28;20555;-81
2022/04/20 01:17:46;;;;;;;3.88;2.60;;;;;;;;;;5078696;28;20115;-84
2022/04/20 01:20:16;;;;;;;2.33;2.13;;;;;;;;;;5078854;28;20047;-84
2022/04/20 01:22:42;;;;;;;3.28;2.40;;;;;;;;;;5078065;28;20108;-83
2022/04/20 01:25:08;;;;;;;3.90;2.70;;;;;;;;;;5065871;28;20033;-85
2022/04/20 01:27:35;;;;;;;4.38;2.70;;;;;;;;;;5077827;28;20016;-83
2022/04/20 01:30:01;;;;;;;6.38;3.00;;;;;;;;;;5088370;28;20020;-83
2022/04/20 01:32:26;;;;;;;6.35;2.85;;;;;;;;;;5070800;28;20038;-84
2022/04/20 01:34:52;;;;;;;3.10;2.47;;;;;;;;;;5088585;28;20012;-83
2022/04/20 01:37:18;;;;;;;3.45;2.70;;;;;;;;;;5061923;28;20031;-81
2022/04/20 01:39:43;;;;;;;5.60;2.95;;;;;;;;;;5086588;28;20028;-83
2022/04/20 01:42:10;;;;;;;4.40;2.75;;;;;;;;;;5074697;28;20108;-84
2022/04/20 01:44:36;;;;;;;5.65;3.28;;;;;;;;;;5079062;28;20026;-81
2022/04/20 01:47:02;;;;;;;4.82;3.10;;;;;;;;;;5080264;28;20095;-81
2022/04/20 01:49:27;;;;;;;15.82;4.60;;;;;;;;;;5073423;28;20382;-83
2022/04/20 01:51:54;;;;;;;5.13;2.92;;;;;;;;;;5067514;28;20588;-84
2022/04/20 01:54:19;;;;;;;3.42;2.78;;;;;;;;;;5069619;28;20360;-83
2022/04/20 01:56:51;;;;;;;3.60;2.78;;;;;;;;;;5068816;28;20036;-82
2022/04/20 01:59:17;;;;;;;4.78;2.78;;;;;;;;;;5079646;28;20027;-82
2022/04/20 02:04:27;;;;;;;3.67;2.90;;;;;;;;;;5075625;28;20101;-82
2022/04/20 02:06:52;;;;;;;3.58;2.55;;;;;;;;;;5080709;28;20036;-86
2022/04/20 02:09:18;;;;;;;5.18;3.30;;;;;;;;;;5069291;28;20054;-83
2022/04/20 02:11:43;;;;;;;4.63;3.20;;;;;;;;;;5079041;28;20028;-84
2022/04/20 02:14:08;;;;;;;3.45;2.80;;;;;;;;;;5089182;28;20020;-83
2022/04/20 02:16:34;;;;;;;5.32;3.20;;;;;;;;;;5082030;28;20025;-84
2022/04/20 02:19:00;;;;;;;5.13;3.08;;;;;;;;;;5088545;28;20033;-83
2022/04/20 02:21:25;;;;;;;6.30;3.08;;;;;;;;;;5063917;28;20475;-84
2022/04/20 02:23:50;;;;;;;5.72;3.50;;;;;;;;;;5065816;28;20099;-84
2022/04/20 02:26:16;;;;;;;4.80;2.95;;;;;;;;;;5098352;28;20055;-84
2022/04/20 02:28:41;;;;;;;3.22;2.72;;;;;;;;;;5076828;28;20030;-85
2022/04/20 02:31:06;;;;;;;4.10;2.90;;;;;;;;;;5087045;28;20037;-84
2022/04/20 02:33:32;;;;;;;4.32;3.13;;;;;;;;;;5062185;28;20017;-82
2022/04/20 02:35:57;;;;;;;3.70;2.75;;;;;;;;;;5091228;28;20391;-83
2022/04/20 02:38:23;;;;;;;4.78;2.97;;;;;;;;;;5081076;28;20514;-82
2022/04/20 02:40:51;;;;;;;5.32;2.65;;;;;;;;;;5081191;28;20032;-85
2022/04/20 02:43:16;;;;;;;5.13;3.05;;;;;;;;;;5081406;28;20032;-83
2022/04/20 02:45:42;;;;;;;7.03;2.95;;;;;;;;;;5063971;28;20457;-83
2022/04/20 02:48:09;;;;;;;4.47;2.65;;;;;;;;;;5059359;28;20493;-83
2022/04/20 02:50:34;;;;;;;4.25;2.65;;;;;;;;;;5087584;28;20020;-83
2022/04/20 02:52:59;;;;;;;5.05;3.40;;;;;;;;;;5074713;28;20044;-86
2022/04/20 02:55:25;;;;;;;4.70;2.95;;;;;;;;;;5078393;28;20020;-84
2022/04/20 02:57:50;;;;;;;5.80;3.28;;;;;;;;;;5049988;28;20025;-82
2022/04/20 03:00:16;;;;;;;4.63;2.92;;;;;;;;;;5090969;28;20035;-83
2022/04/20 03:02:42;;;;;;;5.38;3.10;;;;;;;;;;5098630;28;20043;-84
2022/04/20 03:05:07;;;;;;;4.35;2.78;;;;;;;;;;5084805;28;20102;-86
2022/04/20 03:07:33;;;;;;;6.70;2.90;;;;;;;;;;5091122;28;20012;-84
2022/04/20 03:09:58;;;;;;;5.40;3.00;;;;;;;;;;5086400;28;20027;-83
2022/04/20 03:12:23;;;;;;;3.97;3.05;;;;;;;;;;5094679;28;20102;-84
2022/04/20 03:14:51;;;;;;;5.45;2.88;;;;;;;;;;5085936;28;20023;-83
2022/04/20 03:17:17;;;;;;;4.40;3.10;;;;;;;;;;5053507;28;20033;-84
2022/04/20 03:19:42;;;;;;;3.53;2.90;;;;;;;;;;5073437;28;20054;-85
2022/04/20 03:22:08;;;;;;;4.38;3.38;;;;;;;;;;5075302;28;20119;-83
2022/04/20 03:24:33;;;;;;;6.40;3.08;;;;;;;;;;5068649;28;20032;-83
2022/04/20 03:26:58;;;;;;;6.88;3.60;;;;;;;;;;5060633;28;20030;-83
2022/04/20 03:29:24;;;;;;;3.65;2.60;;;;;;;;;;5090127;28;20048;-83
2022/04/20 03:31:49;;;;;;;4.85;2.72;;;;;;;;;;5084716;28;20024;-83
2022/04/20 03:34:15;;;;;;;3.42;2.75;;;;;;;;;;5089348;28;20032;-82
2022/04/20 03:36:40;;;;;;;4.57;2.67;;;;;;;;;;5088252;28;20025;-83
2022/04/20 03:39:06;;;;;;;3.40;3.05;;;;;;;;;;5100232;28;20584;-83
2022/04/20 03:41:31;;;;;;;7.55;3.13;;;;;;;;;;5084333;28;20071;-83
2022/04/20 03:43:57;;;;;;;4.95;3.33;;;;;;;;;;5046257;28;20025;-81
2022/04/20 03:46:23;;;;;;;4.25;2.95;;;;;;;;;;5063577;28;20030;-83
2022/04/20 03:48:49;;;;;;;4.65;3.05;;;;;;;;;;5072368;28;20020;-85
2022/04/20 03:51:15;;;;;;;5.93;2.72;;;;;;;;;;5058633;28;20025;-84
2022/04/20 03:53:40;;;;;;;5.80;2.90;;;;;;;;;;5073115;28;20025;-82
2022/04/20 03:56:05;;;;;;;10.98;3.38;;;;;;;;;;5076807;28;20160;-83
2022/04/20 03:58:31;;;;;;;5.00;3.30;;;;;;;;;;5076898;28;20052;-83
2022/04/20 04:00:56;;;;;;;7.40;3.20;;;;;;;;;;5068194;28;20024;-84
2022/04/20 04:03:21;;;;;;;4.90;3.35;;;;;;;;;;5079484;28;20094;-84
2022/04/20 04:05:47;;;;;;;9.57;3.05;;;;;;;;;;5097867;28;20089;-83
2022/04/20 04:08:12;;;;;;;3.05;2.53;;;;;;;;;;5057238;28;20028;-83
2022/04/20 04:10:38;;;;;;;9.88;2.80;;;;;;;;;;5089072;28;20020;-84
2022/04/20 04:13:03;;;;;;;6.75;3.40;;;;;;;;;;5053387;28;20375;-83
2022/04/20 04:15:29;;;;;;;6.00;3.55;;;;;;;;;;5076574;28;20032;-84
2022/04/20 04:17:58;;;;;;;5.93;3.35;;;;;;;;;;5070937;28;20028;-84
2022/04/20 04:20:25;;;;;;;5.07;3.50;;;;;;;;;;5060994;28;20022;-84
2022/04/20 04:22:51;;;;;;;4.55;3.65;;;;;;;;;;5086209;28;20024;-84
2022/04/20 04:25:16;;;;;;;12.98;3.90;;;;;;;;;;5082233;28;20020;-84
2022/04/20 04:27:42;;;;;;;8.65;3.17;;;;;;;;;;5095692;28;20187;-82
2022/04/20 04:30:08;;;;;;;5.72;3.72;;;;;;;;;;5085947;28;20057;-82
2022/04/20 04:32:33;;;;;;;5.93;3.45;;;;;;;;;;5062182;28;20494;-85
2022/04/20 04:35:00;;;;;;;7.53;3.42;;;;;;;;;;5100100;28;20039;-84
2022/04/20 04:37:26;;;;;;;4.63;3.35;;;;;;;;;;5094435;28;20032;-84
2022/04/20 04:39:51;;;;;;;5.22;3.28;;;;;;;;;;5078959;28;20337;-83
2022/04/20 04:42:17;;;;;;;11.82;5.90;;;;;;;;;;5079682;28;20020;-82
2022/04/20 04:44:42;;;;;;;14.43;4.75;;;;;;;;;;5062154;28;20111;-83
2022/04/20 04:49:52;;;;;;;5.90;3.13;;;;;;;;;;5086001;28;20031;-84
2022/04/20 04:52:17;;;;;;;5.15;3.13;;;;;;;;;;5064605;28;20025;-82
2022/04/20 04:54:43;;;;;;;7.32;3.00;;;;;;;;;;5080260;28;20095;-84
2022/04/20 04:57:10;;;;;;;5.13;3.33;;;;;;;;;;5097594;28;20024;-81
2022/04/20 04:59:39;;;;;;;5.07;3.28;;;;;;;;;;5081737;28;20016;-83
2022/04/20 05:02:06;;;;;;;7.30;3.08;;;;;;;;;;5082026;28;20055;-84
2022/04/20 05:04:31;;;;;;;3.90;2.90;;;;;;;;;;5061832;28;20033;-83
2022/04/20 05:06:58;;;;;;;7.97;2.90;;;;;;;;;;5061654;28;20108;-84
2022/04/20 05:09:33;;;;;;;5.43;3.20;;;;;;;;;;5080070;28;20031;-84
2022/04/20 05:11:59;;;;;;;4.35;3.20;;;;;;;;;;5066080;28;20024;-83
2022/04/20 05:14:25;;;;;;;4.90;3.60;;;;;;;;;;5083154;28;20024;-82
2022/04/20 05:16:50;;;;;;;5.68;3.72;;;;;;;;;;5084821;28;20032;-82
2022/04/20 05:19:19;;;;;;;4.85;3.10;;;;;;;;;;5099295;28;20055;-85
2022/04/20 05:21:44;;;;;;;6.05;3.55;;;;;;;;;;5086523;28;20020;-83
2022/04/20 05:24:10;;;;;;;4.55;3.47;;;;;;;;;;5060693;28;20082;-82
2022/04/20 05:26:35;;;;;;;5.22;3.13;;;;;;;;;;5090232;28;20059;-83
2022/04/20 05:29:01;;;;;;;5.20;3.50;;;;;;;;;;5080067;28;20059;-83
2022/04/20 05:31:26;;;;;;;4.10;3.47;;;;;;;;;;5079951;28;20028;-82
2022/04/20 05:33:52;;;;;;;3.58;3.15;;;;;;;;;;5079027;28;20507;-82
2022/04/20 05:36:18;;;;;;;7.75;3.60;;;;;;;;;;5080354;28;20028;-83
2022/04/20 05:41:40;;;;;;;7.15;3.35;;;;;;;;;;5079337;28;20047;-84
2022/04/20 05:44:09;;;;;;;5.75;3.63;;;;;;;;;;5098854;28;20031;-84
2022/04/20 05:46:35;;;;;;;5.72;3.15;;;;;;;;;;5101809;28;20020;-83
2022/04/20 05:49:01;;;;;;;5.60;3.50;;;;;;;;;;5084771;28;20046;-83
2022/04/20 05:51:27;;;;;;;4.43;3.28;;;;;;;;;;5080598;28;20059;-84
2022/04/20 05:53:52;;;;;;;3.85;3.10;;;;;;;;;;5057106;28;20024;-84
2022/04/20 05:56:17;;;;;;;5.28;3.13;;;;;;;;;;5078186;28;20025;-83
2022/04/20 05:58:44;;;;;;;6.47;4.10;;;;;;;;;;5070867;28;20028;-83
2022/04/20 06:01:10;;;;;;;4.45;3.40;;;;;;;;;;5081123;28;20016;-83
2022/04/20 06:03:36;;;;;;;4.88;3.63;;;;;;;;;;5099465;28;20107;-83
2022/04/20 06:06:03;;;;;;;4.10;3.33;;;;;;;;;;5090035;28;20027;-83
2022/04/20 06:08:29;;;;;;;5.88;3.20;;;;;;;;;;5061160;28;20051;-83
2022/04/20 06:10:57;;;;;;;4.20;3.35;;;;;;;;;;5071301;28;20084;-82
2022/04/20 06:13:24;;;;;;;5.68;3.40;;;;;;;;;;5080463;22;20060;-88
2022/04/20 06:15:49;;;;;;;5.28;3.42;;;;;;;;;;5039872;28;20026;-88
2022/04/20 06:18:15;;;;;;;5.32;3.42;;;;;;;;;;5014424;28;20109;-87
2022/04/20 06:20:40;;;;;;;6.07;3.20;;;;;;;;;;5024232;28;20025;-87
2022/04/20 06:23:05;;;;;;;7.28;3.40;;;;;;;;;;5021833;28;20096;-87
2022/04/20 06:25:31;;;;;;;9.43;3.70;;;;;;;;;;5020079;28;20081;-87
2022/04/20 06:27:56;;;;;;;4.50;3.63;;;;;;;;;;5025387;28;20010;-85
2022/04/20 06:30:22;;;;;;;4.47;3.00;;;;;;;;;;5049606;28;20036;-86
2022/04/20 06:32:47;;;;;;;6.05;3.17;;;;;;;;;;5005038;28;20073;-85
2022/04/20 06:35:13;;;;;;;6.70;3.63;;;;;;;;;;5026206;28;20045;-85
2022/04/20 06:37:38;;;;;;;6.38;3.75;;;;;;;;;;5049731;28;20021;-89
2022/04/20 06:40:04;;;;;;;5.25;3.35;;;;;;;;;;5038211;28;20029;-84
2022/04/20 06:42:29;;;;;;;4.05;3.33;;;;;;;;;;5037330;28;20026;-87
2022/04/20 06:44:55;;;;;;;6.50;3.38;;;;;;;;;;5037372;28;20507;-89
2022/04/20 06:47:20;;;;;;;5.60;3.00;;;;;;;;;;5018034;28;20021;-88
2022/04/20 06:49:45;;;;;;;4.93;3.15;;;;;;;;;;5046507;28;20022;-89
2022/04/20 07:00:25;;;;;;;3.50;2.35;;;;;;;;;;5055806;28;20032;-84
2022/04/20 07:03:01;;;;;;;4.45;2.90;;;;;;;;;;5039066;28;20025;-86
2022/04/20 07:05:26;;;;;;;8.02;3.22;;;;;;;;;;5029087;28;20076;-87
2022/04/20 07:07:52;;;;;;;3.53;2.70;;;;;;;;;;5037721;28;20021;-88
2022/04/20 07:10:17;;;;;;;3.13;2.67;;;;;;;;;;5037165;28;20375;-86
2022/04/20 07:12:43;;;;;;;3.95;2.70;;;;;;;;;;5034356;28;20079;-85
2022/04/20 07:15:08;;;;;;;3.30;2.53;;;;;;;;;;5035787;28;20025;-85
2022/04/20 07:17:34;;;;;;;3.47;2.70;;;;;;;;;;5044868;28;20485;-85
2022/04/20 07:20:01;;;;;;;3.42;2.58;;;;;;;;;;5037175;28;20032;-86
2022/04/20 07:22:27;;;;;;;4.70;2.67;;;;;;;;;;5058767;28;20028;-86
2022/04/20 07:24:52;;;;;;;5.57;2.80;;;;;;;;;;5047538;28;20052;-84
2022/04/20 07:27:18;;;;;;;3.53;2.70;;;;;;;;;;5057522;28;20361;-84
2022/04/20 07:29:43;;;;;;;3.60;2.88;;;;;;;;;;5034712;28;20025;-86
2022/04/20 07:32:09;;;;;;;3.17;2.50;;;;;;;;;;5040082;28;20037;-86
2022/04/20 07:34:34;;;;;;;4.32;2.72;;;;;;;;;;5037670;28;20057;-85
2022/04/20 07:37:00;;;;;;;8.88;2.55;;;;;;;;;;5038049;28;20022;-84
2022/04/20 07:39:25;;;;;;;2.85;2.42;;;;;;;;;;5038292;28;20108;-86
2022/04/20 07:41:51;;;;;;;5.32;2.97;;;;;;;;;;5025614;28;20032;-86
2022/04/20 07:44:16;;;;;;;3.55;2.90;;;;;;;;;;5036539;28;20482;-84
2022/04/20 07:46:41;;;;;;;3.35;2.78;;;;;;;;;;5041074;28;20021;-86
2022/04/20 07:51:51;;;;;;;2.60;2.40;;;;;;;;;;5038792;28;20551;-85
2022/04/20 07:54:16;;;;;;;3.10;2.38;;;;;;;;;;5044307;28;20025;-86
2022/04/20 07:56:42;;;;;;;4.28;2.55;;;;;;;;;;5046397;28;20025;-85
2022/04/20 07:59:07;;;;;;;3.45;2.58;;;;;;;;;;5022146;28;20041;-84
2022/04/20 08:01:32;;;;;;;3.08;2.47;;;;;;;;;;5048072;28;20017;-86
2022/04/20 08:03:58;;;;;;;3.50;2.63;;;;;;;;;;5041789;28;20033;-87
2022/04/20 08:06:24;;;;;;;3.42;2.78;;;;;;;;;;5043998;28;20067;-83
2022/04/20 08:08:49;;;;;;;3.88;2.53;;;;;;;;;;5042765;28;20033;-86
2022/04/20 08:11:14;;;;;;;4.18;2.60;;;;;;;;;;5043354;28;20035;-86
2022/04/20 08:16:24;;;;;;;4.07;2.67;;;;;;;;;;5042837;28;20622;-85
2022/04/20 08:18:49;;;;;;;4.55;2.67;;;;;;;;;;5038451;28;20048;-84
2022/04/20 08:21:15;;;;;;;3.80;2.80;;;;;;;;;;5022069;28;20110;-83
2022/04/20 08:23:40;;;;;;;6.75;2.88;;;;;;;;;;5034756;28;20076;-86
2022/04/20 08:26:06;;;;;;;4.50;2.50;;;;;;;;;;5039777;28;20152;-87
2022/04/20 08:28:32;;;;;;;2.75;2.17;;;;;;;;;;5020765;28;20025;-85
2022/04/20 08:30:58;;;;;;;3.88;2.63;;;;;;;;;;5043938;28;20032;-86
2022/04/20 08:33:23;;;;;;;4.82;2.63;;;;;;;;;;5042595;28;20022;-86
2022/04/20 08:35:49;;;;;;;2.80;2.30;;;;;;;;;;5039370;28;20017;-86
2022/04/20 08:38:14;;;;;;;2.88;2.30;;;;;;;;;;5041000;28;20056;-83
2022/04/20 08:40:41;;;;;;;3.40;2.63;;;;;;;;;;5039724;28;20025;-84
2022/04/20 08:43:06;;;;;;;10.23;2.53;;;;;;;;;;5036660;28;20047;-84
2022/04/20 08:45:37;;;;;;;3.17;2.30;;;;;;;;;;5045131;28;20077;-84
2022/04/20 08:48:04;;;;;;;3.63;2.60;;;;;;;;;;5041362;28;20541;-84
2022/04/20 08:50:29;;;;;;;3.38;2.47;;;;;;;;;;5047863;28;20040;-84
2022/04/20 08:52:55;;;;;;;4.18;2.58;;;;;;;;;;5043757;28;20023;-82
2022/04/20 08:55:21;;;;;;;6.35;2.65;;;;;;;;;;5039344;28;20025;-82
2022/04/20 08:57:48;;;;;;;4.88;2.80;;;;;;;;;;5040291;28;20447;-81
2022/04/20 09:00:20;;;;;;;3.97;1.92;;;;;;;;;;5036873;28;20036;-82
2022/04/20 09:02:52;;;;;;;3.60;2.08;;;;;;;;;;5035541;28;20108;-81
2022/04/20 09:05:17;;;;;;;3.90;2.55;;;;;;;;;;5037865;28;20017;-84
2022/04/20 09:07:43;;;;;;;3.15;2.65;;;;;;;;;;5036521;28;20027;-83
2022/04/20 09:10:08;;;;;;;11.27;2.45;;;;;;;;;;5021100;28;20043;-82
2022/04/20 09:12:40;;;;;;;2.50;2.30;;;;;;;;;;5045806;28;20021;-84
2022/04/20 09:15:06;;;;;;;3.72;1.90;;;;;;;;;;5042136;28;20021;-82
2022/04/20 09:17:40;;;;;;;4.35;2.47;;;;;;;;;;5047254;28;20529;-84
2022/04/20 09:20:06;;;;;;;3.40;2.60;;;;;;;;;;5050182;28;20032;-85
2022/04/20 09:22:32;;;;;;;3.72;2.20;;;;;;;;;;5054390;28;20033;-83
2022/04/20 09:24:57;;;;;;;2.88;2.38;;;;;;;;;;5035544;28;20394;-83
2022/04/20 09:27:23;;;;;;;3.47;2.28;;;;;;;;;;5039403;28;20020;-82
2022/04/20 09:29:56;;;;;;;3.65;2.60;;;;;;;;;;5047194;28;20466;-81
2022/04/20 09:32:36;;;;;;;2.75;2.28;;;;;;;;;;5020519;28;20119;-81
2022/04/20 09:35:05;;;;;;;5.40;2.40;;;;;;;;;;5020712;28;20033;-83
2022/04/20 09:37:31;;;;;;;2.22;2.03;;;;;;;;;;5038206;28;20501;-83
2022/04/20 09:39:57;;;;;;;3.13;2.22;;;;;;;;;;5013977;28;20041;-83
2022/04/20 09:42:24;;;;;;;5.72;2.53;;;;;;;;;;5039376;28;20018;-83
2022/04/20 09:45:00;;;;;;;2.88;2.40;;;;;;;;;;5038917;28;20060;-83
2022/04/20 09:50:33;;;;;;;2.63;2.40;;;;;;;;;;4974549;28;20035;-85
2022/04/20 09:53:00;;;;;;;2.60;2.13;;;;;;;;;;5023950;28;20043;-82
2022/04/20 09:55:30;;;;;;;3.80;2.45;;;;;;;;;;5045477;28;20025;-83
2022/04/20 09:58:09;;;;;;;3.15;2.25;;;;;;;;;;5036389;28;20028;-82
2022/04/20 10:00:39;;;;;;;2.25;1.85;;;;;;;;;;5046669;28;20024;-83
2022/04/20 10:03:05;;;;;;;3.03;2.22;;;;;;;;;;5036778;28;20009;-82
2022/04/20 10:05:30;;;;;;;2.38;2.17;;;;;;;;;;5038450;28;20017;-82
2022/04/20 10:07:59;;;;;;;5.13;2.72;;;;;;;;;;5044626;28;20040;-83
2022/04/20 10:10:28;;;;;;;13.40;2.50;;;;;;;;;;5047756;28;20028;-83
2022/04/20 10:12:55;;;;;;;4.72;2.20;;;;;;;;;;5045066;28;20563;-83
2022/04/20 10:18:21;;;;;;;2.28;2.08;;;;;;;;;;5044907;28;20047;-84
2022/04/20 10:20:54;;;;;;;2.83;1.90;;;;;;;;;;5054357;28;20040;-83
2022/04/20 10:23:21;;;;;;;2.75;2.05;;;;;;;;;;5052528;28;20025;-82
2022/04/20 10:25:50;;;;;;;3.53;2.10;;;;;;;;;;5053126;28;20021;-83
2022/04/20 10:28:39;;;;;;;2.90;1.83;;;;;;;;;;5054499;28;20352;-85
2022/04/20 10:31:24;;;;;;;3.35;2.20;;;;;;;;;;5044034;28;20055;-84
2022/04/20 10:33:50;;;;;;;2.90;2.08;;;;;;;;;;5022182;28;20036;-85
2022/04/20 10:36:18;;;;;;;3.50;2.22;;;;;;;;;;5044559;28;20033;-83
2022/04/20 10:38:46;;;;;;;2.83;2.10;;;;;;;;;;5046088;28;20032;-83
2022/04/20 10:41:19;;;;;;;3.72;1.98;;;;;;;;;;5051842;28;20394;-82
2022/04/20 10:43:46;;;;;;;3.13;1.90;;;;;;;;;;5047908;28;20029;-85
2022/04/20 10:46:21;;;;;;;4.70;2.10;;;;;;;;;;5041197;28;20491;-84
2022/04/20 10:49:07;;;;;;;3.85;2.58;;;;;;;;;;5052753;28;20034;-83
2022/04/20 10:51:41;;;;;;;2.13;1.90;;;;;;;;;;5046997;28;20024;-82
2022/04/20 10:54:26;;;;;;;4.38;2.05;;;;;;;;;;5052116;28;20056;-83
2022/04/20 10:57:01;;;;;;;2.60;2.03;;;;;;;;;;5047609;28;20017;-83
2022/04/20 10:59:28;;;;;;;3.08;2.03;;;;;;;;;;5021704;28;20493;-82
2022/04/20 11:01:59;;;;;;;4.03;1.70;;;;;;;;;;5042216;28;20029;-81
2022/04/20 11:04:48;;;;;;;2.07;1.87;;;;;;;;;;5014269;28;20025;-85
2022/04/20 11:07:21;;;;;;;2.92;2.10;;;;;;;;;;5043464;28;20036;-84
2022/04/20 11:09:49;;;;;;;2.15;1.95;;;;;;;;;;5034355;28;20037;-83
2022/04/20 11:23:57;;;;;;;3.50;2.17;;;;;;;;;;5036374;28;20052;-84
2022/04/20 11:26:28;;;;;;;2.55;1.80;;;;;;;;;;5020840;28;20051;-85
2022/04/20 11:28:56;;;;;;;3.20;2.40;;;;;;;;;;5042505;28;20029;-86
2022/04/20 11:31:21;;;;;;;3.20;2.42;;;;;;;;;;5051625;28;20031;-85
2022/04/20 11:33:47;;;;;;;2.70;2.13;;;;;;;;;;5035995;28;20033;-85
2022/04/20 11:36:14;;;;;;;3.17;1.92;;;;;;;;;;5049730;28;20059;-85
2022/04/20 11:38:42;;;;;;;2.10;1.90;;;;;;;;;;5042741;28;20022;-85
2022/04/20 11:41:12;;;;;;;3.67;2.15;;;;;;;;;;5052428;28;20064;-85
2022/04/20 11:43:39;;;;;;;4.60;2.15;;;;;;;;;;5028141;28;20025;-85
2022/04/20 11:46:07;;;;;;;8.50;2.70;;;;;;;;;;5051610;28;20032;-85
2022/04/20 11:48:37;;;;;;;2.78;2.20;;;;;;;;;;5048452;28;20097;-86
2022/04/20 11:51:07;;;;;;;2.42;2.03;;;;;;;;;;5048262;28;20021;-85
2022/04/20 11:53:38;;;;;;;2.20;2.00;;;;;;;;;;5049695;28;20032;-86
2022/04/20 11:56:07;;;;;;;2.03;1.90;;;;;;;;;;5042103;28;20020;-86
2022/04/20 11:58:33;;;;;;;4.47;1.85;;;;;;;;;;5026782;28;20041;-84
2022/04/20 12:01:04;;;;;;;5.75;2.22;;;;;;;;;;5048391;28;20494;-85
2022/04/20 12:03:36;;;;;;;3.92;2.38;;;;;;;;;;5052329;28;20025;-85
2022/04/20 12:06:06;;;;;;;3.30;2.00;;;;;;;;;;5044764;28;20039;-86
2022/04/20 12:08:34;;;;;;;5.28;2.67;;;;;;;;;;5051322;28;20406;-85
2022/04/20 12:11:08;;;;;;;5.20;2.10;;;;;;;;;;5053909;28;20035;-87
2022/04/20 12:13:34;;;;;;;4.32;2.20;;;;;;;;;;5052535;28;20029;-84
2022/04/20 12:16:05;;;;;;;4.22;2.35;;;;;;;;;;5049763;28;20013;-85
2022/04/20 12:18:35;;;;;;;2.58;2.00;;;;;;;;;;5040673;28;20024;-84
2022/04/20 12:21:01;;;;;;;2.85;2.05;;;;;;;;;;5050463;28;20025;-85
2022/04/20 12:23:32;;;;;;;6.13;2.58;;;;;;;;;;5049388;28;20032;-86
2022/04/20 12:25:58;;;;;;;3.03;2.17;;;;;;;;;;5049206;28;20025;-83
2022/04/20 12:28:35;;;;;;;3.15;2.67;;;;;;;;;;5045468;28;20017;-85
2022/04/20 12:31:02;;;;;;;6.55;2.90;;;;;;;;;;5039655;28;20022;-85
2022/04/20 12:33:28;;;;;;;4.93;2.35;;;;;;;;;;5040770;28;20032;-85
2022/04/20 12:36:06;;;;;;;3.00;2.70;;;;;;;;;;5041116;28;20108;-85
2022/04/20 12:38:42;;;;;;;2.22;2.03;;;;;;;;;;5040320;28;20024;-84
2022/04/20 12:43:36;;;;;;;5.25;2.85;;;;;;;;;;5050402;28;20118;-85
2022/04/20 12:46:14;;;;;;;5.45;2.60;;;;;;;;;;5054332;28;20029;-84
2022/04/20 13:54:25;;;;;;;4.47;2.17;;;;;;;;;;5046574;28;20064;-82
2022/04/20 13:56:50;;;;;;;5.93;2.53;;;;;;;;;;4999117;28;20042;-83
2022/04/20 13:59:16;;;;;;;5.90;2.38;;;;;;;;;;5038558;28;20055;-87
2022/04/20 14:01:41;;;;;;;3.13;1.85;;;;;;;;;;5027435;28;20030;-86
2022/04/20 14:04:06;;;;;;;3.33;2.17;;;;;;;;;;5029836;28;20029;-86
2022/04/20 14:06:32;;;;;;;4.45;2.10;;;;;;;;;;5064363;28;20037;-87
2022/04/20 14:08:57;;;;;;;3.70;2.10;;;;;;;;;;5044441;28;20035;-86
2022/04/20 14:11:24;;;;;;;3.10;2.03;;;;;;;;;;5064117;28;20032;-85
2022/04/20 14:13:50;;;;;;;3.45;2.00;;;;;;;;;;5062930;28;20021;-85
2022/04/20 14:16:15;;;;;;;3.28;2.35;;;;;;;;;;5058089;28;20099;-85
2022/04/20 14:18:40;;;;;;;4.45;2.03;;;;;;;;;;5034798;28;20017;-86
2022/04/20 14:21:06;;;;;;;3.33;2.00;;;;;;;;;;5041497;28;20450;-84
2022/04/20 14:23:31;;;;;;;2.45;1.85;;;;;;;;;;5038776;28;20501;-85
2022/04/20 14:34:08;;;;;;;2.67;2.00;;;;;;;;;;5053077;28;20454;-84
2022/04/20 14:36:35;;;;;;;3.17;2.35;;;;;;;;;;5054883;28;20025;-83
2022/04/20 14:39:02;;;;;;;2.63;2.15;;;;;;;;;;5056495;28;20021;-85
2022/04/20 14:41:28;;;;;;;3.95;2.17;;;;;;;;;;5061232;28;20033;-84
2022/04/20 14:43:53;;;;;;;4.10;2.17;;;;;;;;;;5043969;28;20129;-85
2022/04/20 14:46:19;;;;;;;3.78;2.20;;;;;;;;;;5040883;28;20032;-83
2022/04/20 14:48:44;;;;;;;4.13;2.10;;;;;;;;;;5043871;28;20022;-87
2022/04/20 14:51:10;;;;;;;5.53;2.45;;;;;;;;;;5056097;28;20087;-85
2022/04/20 14:53:36;;;;;;;7.60;1.92;;;;;;;;;;5042871;28;20462;-86
2022/04/20 14:56:03;;;;;;;2.38;1.90;;;;;;;;;;5052725;28;20032;-86
2022/04/20 14:58:28;;;;;;;13.25;2.60;;;;;;;;;;5040508;28;20499;-87
2022/04/20 15:00:55;;;;;;;3.63;1.98;;;;;;;;;;5048005;28;20046;-86
2022/04/20 15:03:20;;;;;;;2.58;1.92;;;;;;;;;;5056751;28;20127;-86
2022/04/20 15:05:46;;;;;;;4.35;2.53;;;;;;;;;;5044901;28;20044;-83
2022/04/20 15:08:12;;;;;;;2.20;2.00;;;;;;;;;;5047809;28;20029;-84
2022/04/20 15:10:38;;;;;;;3.95;2.15;;;;;;;;;;5046099;28;20032;-85
2022/04/20 15:13:04;;;;;;;2.85;2.35;;;;;;;;;;5052984;28;20025;-84
2022/04/20 15:15:29;;;;;;;2.35;2.13;;;;;;;;;;5038626;28;20033;-83
2022/04/20 15:17:55;;;;;;;5.85;2.58;;;;;;;;;;5039880;28;20025;-84
2022/04/20 15:20:20;;;;;;;3.13;2.20;;;;;;;;;;5051380;28;20067;-83
2022/04/20 15:22:46;;;;;;;3.90;2.42;;;;;;;;;;5052866;28;20022;-83
2022/04/20 15:25:12;;;;;;;3.88;1.77;;;;;;;;;;5029858;28;20033;-83
2022/04/20 15:27:38;;;;;;;6.07;2.40;;;;;;;;;;5041531;28;20020;-83
2022/04/20 15:30:05;;;;;;;3.67;2.55;;;;;;;;;;5049141;28;20036;-83
2022/04/20 15:32:31;;;;;;;3.83;2.38;;;;;;;;;;5035214;28;20040;-84
2022/04/20 15:34:57;;;;;;;4.65;2.20;;;;;;;;;;5055807;28;20048;-82
2022/04/20 15:37:24;;;;;;;2.72;2.20;;;;;;;;;;5019693;28;20472;-82
2022/04/20 15:39:49;;;;;;;3.42;2.25;;;;;;;;;;5026178;28;20076;-82
2022/04/20 15:42:15;;;;;;;4.30;2.28;;;;;;;;;;5021259;28;20380;-81
2022/04/20 15:44:41;;;;;;;4.35;2.65;;;;;;;;;;5033468;28;20140;-84
2022/04/20 15:47:06;;;;;;;2.40;2.17;;;;;;;;;;5040960;28;20083;-83
2022/04/20 15:49:32;;;;;;;3.92;2.50;;;;;;;;;;5035511;28;20032;-82
2022/04/20 15:51:59;;;;;;;3.63;2.35;;;;;;;;;;5039081;28;20029;-82
2022/04/20 15:54:24;;;;;;;4.85;2.50;;;;;;;;;;5049495;28;20033;-82
2022/04/20 16:00:14;;;;;;;3.42;2.40;;;;;;;;;;5036954;28;20032;-82
2022/04/20 16:02:31;;;;;;;3.20;2.58;;;;;;;;;;5040511;28;20094;-84
2022/04/20 16:04:56;;;;;;;3.35;2.25;;;;;;;;;;5051808;28;20053;-87
2022/04/20 16:07:22;;;;;;;2.70;2.28;;;;;;;;;;5045015;28;20114;-85
2022/04/20 16:09:48;;;;;;;8.70;2.50;;;;;;;;;;5044406;28;20025;-81
2022/04/20 16:12:13;;;;;;;3.35;2.30;;;;;;;;;;5051893;28;20534;-81
2022/04/20 16:14:38;;;;;;;5.03;2.25;;;;;;;;;;5047547;28;20029;-82
2022/04/20 16:17:04;;;;;;;6.97;2.22;;;;;;;;;;5042266;28;20033;-84
2022/04/20 16:19:30;;;;;;;3.03;2.35;;;;;;;;;;5026985;28;20041;-81
2022/04/20 16:21:56;;;;;;;5.13;2.65;;;;;;;;;;5053589;28;20024;-82
2022/04/20 16:24:21;;;;;;;3.72;2.40;;;;;;;;;;5055004;28;20115;-83
2022/04/20 16:26:47;;;;;;;7.80;2.45;;;;;;;;;;5040491;28;20120;-82
2022/04/20 16:29:14;;;;;;;4.30;2.30;;;;;;;;;;5026499;28;20041;-82
2022/04/20 16:31:40;;;;;;;5.28;2.65;;;;;;;;;;5042138;28;20096;-82
2022/04/20 16:34:06;;;;;;;5.60;2.20;;;;;;;;;;5040554;28;20306;-83
2022/04/20 16:36:31;;;;;;;3.28;2.45;;;;;;;;;;5052051;28;20368;-82
2022/04/20 16:38:57;;;;;;;4.95;2.30;;;;;;;;;;5059758;28;20024;-81